Time;durP1;ratioP1;P1;durP2;ratioP2;P2;SDS_P1;SDS_P2;PMS_P1;PMS_P2;Temp;Humidity;BMP_temperature;BMP_pressure;BME280_temperature;BME280_humidity;BME280_pressure;Samples;Min_cycle;Max_cycle;Signal;HPM_P1;HPM_P2
2022/10/12 00:00:49;;;;;;;4.27;3.87;;;;;;;;;;5052533;28;20229;-87
2022/10/12 00:03:16;;;;;;;3.70;3.23;;;;;;;;;;5052388;28;20287;-87
2022/10/12 00:05:43;;;;;;;3.33;3.03;;;;;;;;;;5055239;28;20210;-86
2022/10/12 00:08:10;;;;;;;6.50;3.37;;;;;;;;;;5056101;28;20238;-86
2022/10/12 00:10:42;;;;;;;7.50;3.63;;;;;;;;;;5059966;28;20233;-86
2022/10/12 00:13:09;;;;;;;6.50;3.13;;;;;;;;;;5053327;28;20236;-87
2022/10/12 00:15:37;;;;;;;4.87;3.27;;;;;;;;;;5053334;28;20229;-87
2022/10/12 00:18:04;;;;;;;4.57;3.50;;;;;;;;;;5051889;28;20248;-87
2022/10/12 00:20:31;;;;;;;3.20;2.90;;;;;;;;;;5052457;28;20230;-86
2022/10/12 00:22:58;;;;;;;3.30;3.00;;;;;;;;;;5051873;28;20237;-87
2022/10/12 00:25:25;;;;;;;3.93;3.20;;;;;;;;;;5052505;28;20687;-87
2022/10/12 00:27:54;;;;;;;4.37;2.97;;;;;;;;;;5051130;28;20725;-87
2022/10/12 00:30:21;;;;;;;3.40;3.00;;;;;;;;;;5052102;28;20442;-87
2022/10/12 00:32:48;;;;;;;3.70;2.97;;;;;;;;;;5051659;28;20229;-86
2022/10/12 00:35:15;;;;;;;3.43;3.23;;;;;;;;;;5052264;28;20210;-87
2022/10/12 00:37:42;;;;;;;4.13;3.30;;;;;;;;;;5051422;28;20300;-87
2022/10/12 00:40:10;;;;;;;3.43;2.80;;;;;;;;;;5052390;28;20236;-86
2022/10/12 00:42:37;;;;;;;6.07;3.67;;;;;;;;;;5051667;28;20245;-87
2022/10/12 00:45:06;;;;;;;6.83;3.20;;;;;;;;;;5051949;28;20233;-86
2022/10/12 00:47:35;;;;;;;4.93;3.40;;;;;;;;;;5051244;28;20240;-87
2022/10/12 00:50:04;;;;;;;4.57;3.33;;;;;;;;;;5052658;28;20206;-86
2022/10/12 00:52:37;;;;;;;6.87;3.63;;;;;;;;;;5051864;28;20237;-86
2022/10/12 00:55:04;;;;;;;2.90;2.60;;;;;;;;;;5053448;28;20647;-86
2022/10/12 00:57:32;;;;;;;6.73;3.53;;;;;;;;;;5056272;28;20235;-86
2022/10/12 01:00:01;;;;;;;5.73;3.37;;;;;;;;;;5051937;28;20208;-87
2022/10/12 01:02:31;;;;;;;4.30;3.30;;;;;;;;;;5054103;28;20246;-86
2022/10/12 01:04:58;;;;;;;4.23;3.10;;;;;;;;;;5052752;28;20210;-87
2022/10/12 01:07:25;;;;;;;6.03;3.43;;;;;;;;;;5055426;28;20221;-86
2022/10/12 01:09:53;;;;;;;12.57;3.43;;;;;;;;;;5055304;28;20202;-87
2022/10/12 01:12:20;;;;;;;5.43;3.50;;;;;;;;;;5055060;28;20229;-86
2022/10/12 01:14:48;;;;;;;5.97;3.33;;;;;;;;;;5055396;28;20210;-86
2022/10/12 01:17:22;;;;;;;4.13;3.00;;;;;;;;;;5054852;28;20210;-86
2022/10/12 01:19:59;;;;;;;4.83;3.17;;;;;;;;;;5054988;28;20214;-87
2022/10/12 01:22:27;;;;;;;4.13;3.30;;;;;;;;;;5054668;28;20226;-86
2022/10/12 01:24:54;;;;;;;5.03;3.80;;;;;;;;;;5055201;28;20206;-86
2022/10/12 01:27:40;;;;;;;6.23;3.23;;;;;;;;;;5054232;28;20206;-86
2022/10/12 01:30:17;;;;;;;3.93;3.23;;;;;;;;;;5034678;28;20276;-86
2022/10/12 01:32:50;;;;;;;4.27;3.30;;;;;;;;;;5035141;28;20238;-86
2022/10/12 01:35:21;;;;;;;6.90;3.50;;;;;;;;;;5055033;28;20202;-86
2022/10/12 01:37:52;;;;;;;5.00;3.30;;;;;;;;;;5054125;28;20245;-86
2022/10/12 01:40:24;;;;;;;4.87;3.40;;;;;;;;;;5054823;28;20194;-86
2022/10/12 01:42:51;;;;;;;3.73;3.33;;;;;;;;;;5054467;28;20681;-86
2022/10/12 01:45:20;;;;;;;4.77;3.60;;;;;;;;;;5054311;28;20697;-86
2022/10/12 01:47:48;;;;;;;5.60;4.10;;;;;;;;;;5054127;28;20237;-86
2022/10/12 01:50:17;;;;;;;8.47;3.60;;;;;;;;;;5054457;28;20255;-86
2022/10/12 01:52:47;;;;;;;4.23;3.60;;;;;;;;;;5053618;28;20238;-86
2022/10/12 01:55:23;;;;;;;4.37;3.50;;;;;;;;;;5054457;28;20201;-86
2022/10/12 01:58:11;;;;;;;4.90;3.47;;;;;;;;;;5034817;28;20261;-87
2022/10/12 02:00:42;;;;;;;7.93;4.60;;;;;;;;;;5049440;28;20276;-86
2022/10/12 02:03:11;;;;;;;6.20;3.90;;;;;;;;;;5053880;28;20234;-86
2022/10/12 02:05:42;;;;;;;8.50;4.20;;;;;;;;;;5054413;28;20213;-86
2022/10/12 02:08:13;;;;;;;15.20;5.10;;;;;;;;;;5053185;28;20706;-86
2022/10/12 02:10:41;;;;;;;7.57;4.93;;;;;;;;;;5054182;28;20225;-86
2022/10/12 02:13:10;;;;;;;10.93;4.53;;;;;;;;;;5053179;28;20242;-86
2022/10/12 02:15:39;;;;;;;6.30;4.80;;;;;;;;;;5054212;28;20213;-86
2022/10/12 02:18:08;;;;;;;13.83;5.57;;;;;;;;;;5053121;28;20234;-87
2022/10/12 02:20:36;;;;;;;12.77;5.23;;;;;;;;;;5054073;28;20218;-86
2022/10/12 02:23:03;;;;;;;9.73;5.40;;;;;;;;;;5053087;28;20244;-86
2022/10/12 02:25:31;;;;;;;9.07;4.87;;;;;;;;;;5053980;28;20205;-86
2022/10/12 02:28:00;;;;;;;13.73;4.97;;;;;;;;;;5053195;28;20229;-86
2022/10/12 02:30:28;;;;;;;11.10;5.10;;;;;;;;;;5053310;28;20233;-86
2022/10/12 02:32:57;;;;;;;5.80;4.80;;;;;;;;;;5053417;28;20248;-86
2022/10/12 02:35:28;;;;;;;7.87;4.97;;;;;;;;;;5054159;28;20210;-86
2022/10/12 02:37:57;;;;;;;10.77;5.20;;;;;;;;;;5053325;28;20233;-87
2022/10/12 02:40:25;;;;;;;7.87;4.63;;;;;;;;;;5053750;28;20222;-87
2022/10/12 02:42:55;;;;;;;11.37;5.20;;;;;;;;;;5053636;28;20287;-86
2022/10/12 02:45:23;;;;;;;12.50;5.07;;;;;;;;;;5053893;28;20205;-86
2022/10/12 02:47:51;;;;;;;11.60;4.57;;;;;;;;;;5052567;28;20229;-87
2022/10/12 02:50:19;;;;;;;7.00;4.07;;;;;;;;;;5052713;28;20206;-86
2022/10/12 02:52:48;;;;;;;5.57;4.50;;;;;;;;;;5052704;28;20252;-86
2022/10/12 02:55:15;;;;;;;11.47;4.10;;;;;;;;;;5036655;28;20626;-86
2022/10/12 02:57:42;;;;;;;5.53;4.03;;;;;;;;;;5052634;28;20325;-87
2022/10/12 03:00:10;;;;;;;5.73;4.53;;;;;;;;;;5052946;28;20201;-87
2022/10/12 03:02:37;;;;;;;7.50;4.20;;;;;;;;;;5052915;28;20234;-87
2022/10/12 03:05:05;;;;;;;6.00;4.37;;;;;;;;;;5052921;28;20272;-86
2022/10/12 03:07:32;;;;;;;4.37;3.73;;;;;;;;;;5051563;28;20230;-86
2022/10/12 03:10:00;;;;;;;9.43;4.57;;;;;;;;;;5052656;28;20202;-86
2022/10/12 03:12:27;;;;;;;6.33;4.50;;;;;;;;;;5052124;28;20245;-86
2022/10/12 03:14:54;;;;;;;9.53;4.73;;;;;;;;;;5052288;28;20209;-86
2022/10/12 03:17:21;;;;;;;7.63;5.13;;;;;;;;;;5038047;28;20198;-87
2022/10/12 03:19:48;;;;;;;10.73;4.97;;;;;;;;;;5032316;28;20210;-87
2022/10/12 03:22:15;;;;;;;6.53;4.17;;;;;;;;;;5036274;28;20214;-87
2022/10/12 03:24:42;;;;;;;9.63;4.87;;;;;;;;;;5052067;28;20206;-87
2022/10/12 03:27:11;;;;;;;6.77;4.73;;;;;;;;;;5051649;28;20212;-87
2022/10/12 03:29:38;;;;;;;4.73;4.33;;;;;;;;;;5032083;28;20211;-87
2022/10/12 03:32:05;;;;;;;5.80;4.33;;;;;;;;;;5042863;28;20233;-87
2022/10/12 03:34:32;;;;;;;4.80;4.27;;;;;;;;;;5052610;28;20202;-87
2022/10/12 03:36:59;;;;;;;8.43;5.40;;;;;;;;;;5052311;28;20202;-87
2022/10/12 03:39:27;;;;;;;13.20;5.87;;;;;;;;;;5051883;28;20243;-87
2022/10/12 03:41:54;;;;;;;8.90;6.60;;;;;;;;;;5060547;28;20286;-87
2022/10/12 03:44:22;;;;;;;9.70;5.93;;;;;;;;;;5051893;28;20229;-87
2022/10/12 03:46:49;;;;;;;8.27;5.40;;;;;;;;;;5067832;28;20202;-87
2022/10/12 03:49:16;;;;;;;5.70;4.80;;;;;;;;;;5073534;28;20327;-87
2022/10/12 03:51:43;;;;;;;9.23;4.87;;;;;;;;;;5065632;28;20222;-87
2022/10/12 03:54:11;;;;;;;10.50;5.13;;;;;;;;;;5051640;28;20237;-87
2022/10/12 03:56:38;;;;;;;9.03;5.17;;;;;;;;;;5051971;28;20208;-86
2022/10/12 03:59:05;;;;;;;9.17;5.33;;;;;;;;;;5052282;28;20238;-86
2022/10/12 04:01:33;;;;;;;9.07;5.23;;;;;;;;;;5043813;28;20223;-85
2022/10/12 04:04:00;;;;;;;7.33;5.43;;;;;;;;;;5044485;28;20230;-87
2022/10/12 04:06:27;;;;;;;11.43;6.17;;;;;;;;;;5051497;28;20194;-87
2022/10/12 04:08:54;;;;;;;7.63;5.33;;;;;;;;;;5050964;28;20740;-87
2022/10/12 04:11:22;;;;;;;7.90;4.83;;;;;;;;;;5051614;28;20229;-87
2022/10/12 04:13:49;;;;;;;11.03;5.57;;;;;;;;;;5050918;28;20233;-86
2022/10/12 04:16:16;;;;;;;10.70;5.37;;;;;;;;;;5075176;22;20226;-78
2022/10/12 04:18:44;;;;;;;9.43;4.93;;;;;;;;;;5062448;28;20241;-77
2022/10/12 04:21:13;;;;;;;5.63;4.57;;;;;;;;;;5045904;28;20214;-77
2022/10/12 04:23:40;;;;;;;9.70;5.73;;;;;;;;;;5046124;28;20371;-77
2022/10/12 04:26:07;;;;;;;9.90;5.10;;;;;;;;;;5058704;28;20237;-77
2022/10/12 04:28:35;;;;;;;7.93;5.03;;;;;;;;;;5050786;28;20225;-77
2022/10/12 04:31:02;;;;;;;7.07;5.20;;;;;;;;;;5051772;28;20209;-78
2022/10/12 04:33:30;;;;;;;13.17;4.60;;;;;;;;;;5050836;28;20250;-77
2022/10/12 04:35:59;;;;;;;5.83;4.53;;;;;;;;;;5067504;28;20201;-77
2022/10/12 04:38:26;;;;;;;5.27;4.67;;;;;;;;;;5073369;28;20241;-76
2022/10/12 04:40:53;;;;;;;5.10;4.57;;;;;;;;;;5055440;28;20665;-77
2022/10/12 04:43:21;;;;;;;6.27;4.57;;;;;;;;;;5056680;28;20257;-76
2022/10/12 04:45:54;;;;;;;7.83;4.73;;;;;;;;;;5051833;28;20210;-77
2022/10/12 04:48:21;;;;;;;6.53;4.23;;;;;;;;;;5054677;28;20233;-77
2022/10/12 04:50:48;;;;;;;5.37;4.43;;;;;;;;;;5055187;28;20206;-77
2022/10/12 04:53:16;;;;;;;5.30;4.67;;;;;;;;;;5054837;28;20248;-76
2022/10/12 04:55:43;;;;;;;6.43;5.07;;;;;;;;;;5054778;28;20205;-77
2022/10/12 04:58:11;;;;;;;6.00;4.67;;;;;;;;;;5054588;28;20325;-76
2022/10/12 05:00:38;;;;;;;20.87;5.07;;;;;;;;;;5054927;28;20285;-79
2022/10/12 05:03:05;;;;;;;23.70;5.20;;;;;;;;;;5054489;28;20230;-79
2022/10/12 05:05:33;;;;;;;22.27;6.63;;;;;;;;;;5055068;28;20217;-79
2022/10/12 05:08:00;;;;;;;18.77;5.00;;;;;;;;;;5054202;28;20241;-79
2022/10/12 05:10:28;;;;;;;14.60;4.63;;;;;;;;;;5054757;28;20677;-78
2022/10/12 05:12:55;;;;;;;17.57;5.33;;;;;;;;;;5054698;28;20237;-78
2022/10/12 05:15:23;;;;;;;13.93;4.70;;;;;;;;;;5055072;28;20206;-79
2022/10/12 05:17:50;;;;;;;6.17;3.77;;;;;;;;;;5054117;28;20246;-78
2022/10/12 05:20:17;;;;;;;12.13;4.27;;;;;;;;;;5054825;28;20210;-78
2022/10/12 05:22:44;;;;;;;9.27;4.13;;;;;;;;;;5054016;28;20236;-78
2022/10/12 05:25:11;;;;;;;10.43;4.40;;;;;;;;;;5054977;28;20210;-78
2022/10/12 05:27:39;;;;;;;19.40;4.20;;;;;;;;;;5053645;28;20236;-78
2022/10/12 05:30:07;;;;;;;7.57;4.00;;;;;;;;;;5054764;28;20213;-78
2022/10/12 05:32:35;;;;;;;8.67;4.20;;;;;;;;;;5053679;28;20300;-78
2022/10/12 05:35:02;;;;;;;5.67;4.10;;;;;;;;;;5054758;28;20202;-78
2022/10/12 05:37:29;;;;;;;8.50;4.70;;;;;;;;;;5053571;28;20234;-78
2022/10/12 05:39:56;;;;;;;5.40;3.83;;;;;;;;;;5054417;28;20202;-79
2022/10/12 05:42:23;;;;;;;10.33;4.10;;;;;;;;;;5054144;28;20237;-79
2022/10/12 05:44:52;;;;;;;8.00;3.87;;;;;;;;;;5053973;28;20209;-79
2022/10/12 05:47:19;;;;;;;14.33;4.40;;;;;;;;;;5053128;28;20779;-79
2022/10/12 05:49:46;;;;;;;6.30;4.23;;;;;;;;;;5054115;28;20213;-79
2022/10/12 05:52:13;;;;;;;6.33;4.20;;;;;;;;;;5054305;28;20217;-80
2022/10/12 05:54:40;;;;;;;17.67;5.20;;;;;;;;;;5054521;28;20210;-79
2022/10/12 05:57:07;;;;;;;6.80;4.80;;;;;;;;;;5053818;28;20572;-80
2022/10/12 05:59:34;;;;;;;8.70;4.87;;;;;;;;;;5054583;28;20202;-79
2022/10/12 06:02:03;;;;;;;8.10;5.03;;;;;;;;;;5059906;28;20206;-78
2022/10/12 06:04:30;;;;;;;21.63;5.30;;;;;;;;;;5068382;28;20684;-79
2022/10/12 06:06:57;;;;;;;11.33;4.67;;;;;;;;;;5068560;28;20242;-79
2022/10/12 06:09:24;;;;;;;7.63;4.47;;;;;;;;;;5066835;28;20245;-79
2022/10/12 06:11:51;;;;;;;5.40;4.43;;;;;;;;;;5072029;28;20206;-79
2022/10/12 06:14:18;;;;;;;7.80;4.27;;;;;;;;;;5073413;28;20244;-79
2022/10/12 06:16:45;;;;;;;6.27;4.53;;;;;;;;;;5075098;28;20309;-79
2022/10/12 06:19:14;;;;;;;5.30;4.40;;;;;;;;;;5071965;28;20229;-79
2022/10/12 06:21:41;;;;;;;7.00;4.33;;;;;;;;;;5072955;28;20206;-79
2022/10/12 06:24:08;;;;;;;4.20;3.80;;;;;;;;;;5070189;28;20236;-79
2022/10/12 06:26:35;;;;;;;10.07;5.07;;;;;;;;;;5070350;28;20217;-79
2022/10/12 06:29:02;;;;;;;7.80;4.17;;;;;;;;;;5067496;28;20241;-79
2022/10/12 06:31:31;;;;;;;9.67;4.27;;;;;;;;;;5059758;28;20210;-79
2022/10/12 06:33:58;;;;;;;6.30;4.13;;;;;;;;;;5053535;28;20257;-79
2022/10/12 06:36:26;;;;;;;8.03;4.00;;;;;;;;;;5053859;28;20253;-79
2022/10/12 06:38:54;;;;;;;4.60;3.80;;;;;;;;;;5053665;28;20729;-79
2022/10/12 06:41:21;;;;;;;8.60;4.00;;;;;;;;;;5053646;28;20214;-79
2022/10/12 06:43:48;;;;;;;5.27;4.00;;;;;;;;;;5053158;28;20237;-79
2022/10/12 06:46:15;;;;;;;4.80;3.80;;;;;;;;;;5053589;28;20221;-79
2022/10/12 06:48:42;;;;;;;8.93;4.10;;;;;;;;;;5052855;28;20383;-79
2022/10/12 06:51:09;;;;;;;10.93;4.30;;;;;;;;;;5054408;28;20202;-79
2022/10/12 06:53:38;;;;;;;7.87;4.57;;;;;;;;;;5053021;28;20253;-79
2022/10/12 06:56:08;;;;;;;5.50;3.93;;;;;;;;;;5053488;28;20209;-79
2022/10/12 06:58:35;;;;;;;7.13;4.70;;;;;;;;;;5052349;28;20607;-79
2022/10/12 07:01:03;;;;;;;4.90;4.40;;;;;;;;;;5032688;28;20207;-79
2022/10/12 07:03:30;;;;;;;11.57;4.50;;;;;;;;;;5032751;28;20234;-79
2022/10/12 07:06:06;;;;;;;9.27;4.40;;;;;;;;;;5033305;28;20568;-80
2022/10/12 07:08:33;;;;;;;6.20;4.03;;;;;;;;;;5032682;28;20647;-80
2022/10/12 07:11:02;;;;;;;14.03;4.43;;;;;;;;;;5033422;28;20241;-80
2022/10/12 07:13:29;;;;;;;5.00;4.20;;;;;;;;;;5032331;28;20249;-79
2022/10/12 07:15:56;;;;;;;4.20;3.90;;;;;;;;;;5032745;28;20202;-81
2022/10/12 07:18:23;;;;;;;10.03;4.20;;;;;;;;;;5032550;28;20238;-79
2022/10/12 07:20:50;;;;;;;8.20;4.60;;;;;;;;;;5032836;28;20225;-79
2022/10/12 07:23:18;;;;;;;11.63;4.57;;;;;;;;;;5032420;28;20227;-79
2022/10/12 07:25:48;;;;;;;5.27;4.37;;;;;;;;;;5033048;28;20210;-79
2022/10/12 07:28:16;;;;;;;5.60;4.20;;;;;;;;;;5032380;28;20242;-79
2022/10/12 07:30:43;;;;;;;8.00;4.17;;;;;;;;;;5032856;28;20198;-79
2022/10/12 07:33:11;;;;;;;5.83;4.53;;;;;;;;;;5032232;28;20234;-79
2022/10/12 07:35:38;;;;;;;5.80;4.70;;;;;;;;;;5032937;28;20293;-80
2022/10/12 07:38:05;;;;;;;11.00;4.50;;;;;;;;;;5031714;28;20612;-79
2022/10/12 07:40:33;;;;;;;6.07;4.50;;;;;;;;;;5032457;28;20207;-79
2022/10/12 07:43:00;;;;;;;7.60;5.23;;;;;;;;;;5032221;28;20234;-79
2022/10/12 07:45:29;;;;;;;5.87;4.90;;;;;;;;;;5032967;28;20206;-79
2022/10/12 07:47:56;;;;;;;6.83;5.00;;;;;;;;;;5031751;28;20241;-79
2022/10/12 07:50:24;;;;;;;5.27;4.77;;;;;;;;;;5033506;28;20309;-79
2022/10/12 07:52:51;;;;;;;5.77;4.90;;;;;;;;;;5036448;28;20461;-79
2022/10/12 07:55:18;;;;;;;8.50;5.40;;;;;;;;;;5032502;28;20210;-79
2022/10/12 07:57:45;;;;;;;9.23;6.23;;;;;;;;;;5031418;28;20318;-79
2022/10/12 08:00:13;;;;;;;6.67;5.90;;;;;;;;;;5058356;28;20208;-79
2022/10/12 08:02:41;;;;;;;6.90;6.20;;;;;;;;;;5071545;28;20237;-78
2022/10/12 08:05:09;;;;;;;9.73;7.03;;;;;;;;;;5072200;28;20201;-78
2022/10/12 08:07:36;;;;;;;8.17;7.30;;;;;;;;;;5071208;28;20704;-77
2022/10/12 08:10:03;;;;;;;12.43;7.83;;;;;;;;;;5072827;28;20585;-78
2022/10/12 08:12:30;;;;;;;10.50;7.53;;;;;;;;;;5071941;28;20236;-78
2022/10/12 08:14:57;;;;;;;12.67;8.00;;;;;;;;;;5072183;28;20566;-78
2022/10/12 08:17:24;;;;;;;10.73;8.13;;;;;;;;;;5071652;28;20237;-78
2022/10/12 08:19:52;;;;;;;9.77;7.60;;;;;;;;;;5071938;28;20209;-78
2022/10/12 08:22:20;;;;;;;11.00;8.40;;;;;;;;;;5071386;28;20204;-78
2022/10/12 08:24:47;;;;;;;12.70;8.70;;;;;;;;;;5072125;28;20208;-78
2022/10/12 08:27:14;;;;;;;10.57;8.73;;;;;;;;;;5071674;28;20221;-78
2022/10/12 08:29:41;;;;;;;12.43;9.03;;;;;;;;;;5071920;28;20212;-78
2022/10/12 08:32:08;;;;;;;14.87;10.07;;;;;;;;;;5071346;28;20197;-77
2022/10/12 08:34:35;;;;;;;15.40;10.63;;;;;;;;;;5071537;28;20220;-78
2022/10/12 08:37:04;;;;;;;15.40;11.20;;;;;;;;;;5071905;28;20232;-78
2022/10/12 08:39:31;;;;;;;19.13;12.03;;;;;;;;;;5071206;28;20221;-78
2022/10/12 08:42:02;;;;;;;20.50;12.07;;;;;;;;;;5071836;28;20565;-78
2022/10/12 08:44:45;;;;;;;16.23;12.07;;;;;;;;;;5071439;28;20217;-78
2022/10/12 08:47:13;;;;;;;18.63;11.90;;;;;;;;;;5071315;28;20229;-78
2022/10/12 08:49:41;;;;;;;16.57;12.67;;;;;;;;;;5071549;28;20198;-78
2022/10/12 08:52:15;;;;;;;24.17;12.67;;;;;;;;;;5071509;28;20205;-79
2022/10/12 08:54:44;;;;;;;19.10;11.43;;;;;;;;;;5071624;28;20217;-78
2022/10/12 08:57:15;;;;;;;20.37;13.40;;;;;;;;;;5070699;28;20217;-78
2022/10/12 08:59:42;;;;;;;16.93;11.60;;;;;;;;;;5070908;28;20213;-78
2022/10/12 09:02:19;;;;;;;15.87;11.70;;;;;;;;;;5071087;28;20736;-79
2022/10/12 09:04:53;;;;;;;13.67;10.77;;;;;;;;;;5071191;28;20209;-78
2022/10/12 09:07:26;;;;;;;14.67;10.63;;;;;;;;;;5070797;28;20232;-78
2022/10/12 09:09:59;;;;;;;15.40;9.80;;;;;;;;;;5070904;28;20198;-78
2022/10/12 09:12:34;;;;;;;11.10;8.87;;;;;;;;;;5070792;28;20233;-79
2022/10/12 09:15:02;;;;;;;14.13;9.57;;;;;;;;;;5071225;28;20338;-79
2022/10/12 09:17:31;;;;;;;13.23;8.80;;;;;;;;;;5070761;28;20243;-78
2022/10/12 09:20:04;;;;;;;15.87;9.40;;;;;;;;;;5071266;28;20263;-79
2022/10/12 09:22:34;;;;;;;15.53;8.97;;;;;;;;;;5071097;28;20233;-79
2022/10/12 09:25:02;;;;;;;15.47;9.37;;;;;;;;;;5075097;28;20284;-80
2022/10/12 09:27:31;;;;;;;10.37;8.80;;;;;;;;;;5073843;28;20237;-79
2022/10/12 09:29:59;;;;;;;14.60;9.00;;;;;;;;;;5075103;28;20209;-80
2022/10/12 09:32:36;;;;;;;12.50;7.93;;;;;;;;;;5073971;28;20623;-79
2022/10/12 09:35:06;;;;;;;10.63;7.83;;;;;;;;;;5074344;28;20235;-79
2022/10/12 09:37:36;;;;;;;12.57;7.93;;;;;;;;;;5073573;28;20693;-77
2022/10/12 09:40:03;;;;;;;9.87;7.23;;;;;;;;;;5074330;28;20685;-77
2022/10/12 09:42:30;;;;;;;10.27;6.93;;;;;;;;;;5074029;28;20232;-78
2022/10/12 09:45:00;;;;;;;11.13;7.43;;;;;;;;;;5074219;28;20201;-77
2022/10/12 09:47:30;;;;;;;12.20;7.17;;;;;;;;;;5073570;28;20233;-78
2022/10/12 09:49:58;;;;;;;12.60;6.80;;;;;;;;;;5074362;28;20208;-77
2022/10/12 09:52:27;;;;;;;12.20;6.70;;;;;;;;;;5073518;28;20692;-78
2022/10/12 09:54:57;;;;;;;8.90;6.60;;;;;;;;;;5074126;28;20233;-77
2022/10/12 09:57:26;;;;;;;8.57;7.17;;;;;;;;;;5073344;28;20245;-78
2022/10/12 09:59:53;;;;;;;9.80;7.17;;;;;;;;;;5073937;28;20213;-77
2022/10/12 10:02:21;;;;;;;17.40;6.97;;;;;;;;;;5073286;28;20212;-78
2022/10/12 10:04:49;;;;;;;10.27;6.67;;;;;;;;;;5073943;28;20706;-78
2022/10/12 10:07:24;;;;;;;11.90;7.23;;;;;;;;;;5073280;28;20236;-78
2022/10/12 10:10:06;;;;;;;12.47;6.90;;;;;;;;;;5073551;28;20209;-77
2022/10/12 10:12:38;;;;;;;9.27;6.77;;;;;;;;;;5073285;28;20233;-78
2022/10/12 10:15:05;;;;;;;9.83;6.77;;;;;;;;;;5073645;28;20229;-77
2022/10/12 10:17:33;;;;;;;9.57;6.47;;;;;;;;;;5073284;28;20233;-77
2022/10/12 10:20:02;;;;;;;9.03;6.10;;;;;;;;;;5073563;28;20213;-78
2022/10/12 10:22:29;;;;;;;10.00;5.83;;;;;;;;;;5073120;28;20228;-77
2022/10/12 10:24:57;;;;;;;7.87;6.30;;;;;;;;;;5073258;28;20208;-77
2022/10/12 10:27:35;;;;;;;12.33;6.03;;;;;;;;;;5072910;28;20236;-77
2022/10/12 10:30:20;;;;;;;10.07;6.17;;;;;;;;;;5073810;28;20201;-77
2022/10/12 10:32:47;;;;;;;9.30;6.17;;;;;;;;;;5072864;28;20340;-77
2022/10/12 10:35:23;;;;;;;9.93;5.60;;;;;;;;;;5073346;28;20221;-77
2022/10/12 10:37:53;;;;;;;10.47;5.77;;;;;;;;;;5073105;28;20240;-77
2022/10/12 10:40:25;;;;;;;10.13;6.00;;;;;;;;;;5046193;28;20201;-77
2022/10/12 10:42:54;;;;;;;10.90;5.90;;;;;;;;;;5051186;28;20238;-77
2022/10/12 10:45:23;;;;;;;6.97;5.80;;;;;;;;;;5052676;28;20220;-77
2022/10/12 10:47:55;;;;;;;10.87;7.03;;;;;;;;;;5051728;28;20693;-77
2022/10/12 10:50:25;;;;;;;9.43;6.17;;;;;;;;;;5052574;28;20210;-77
2022/10/12 10:52:55;;;;;;;11.47;6.37;;;;;;;;;;5052046;28;20240;-77
2022/10/12 10:55:24;;;;;;;7.70;5.97;;;;;;;;;;5052712;28;20229;-77
2022/10/12 10:57:55;;;;;;;8.25;6.30;;;;;;;;;;5055788;28;20267;-78
2022/10/12 11:00:24;;;;;;;7.95;6.18;;;;;;;;;;5053580;28;20206;-77
2022/10/12 11:02:53;;;;;;;7.43;6.00;;;;;;;;;;5051705;28;20244;-78
2022/10/12 11:05:22;;;;;;;10.10;6.10;;;;;;;;;;5052280;28;20716;-78
2022/10/12 11:07:51;;;;;;;11.32;6.35;;;;;;;;;;5051149;28;20241;-77
2022/10/12 11:10:22;;;;;;;8.35;6.38;;;;;;;;;;5052284;28;20206;-77
2022/10/12 11:12:51;;;;;;;11.18;7.07;;;;;;;;;;5051683;28;20234;-77
2022/10/12 11:15:21;;;;;;;12.32;7.32;;;;;;;;;;5052139;28;20226;-78
2022/10/12 11:17:51;;;;;;;9.95;6.63;;;;;;;;;;5050958;28;20234;-78
2022/10/12 11:20:29;;;;;;;10.85;6.50;;;;;;;;;;5052758;28;20198;-79
2022/10/12 11:22:58;;;;;;;9.73;6.20;;;;;;;;;;5051637;28;20238;-79
2022/10/12 11:25:29;;;;;;;11.25;6.47;;;;;;;;;;5051800;28;20206;-78
2022/10/12 11:27:56;;;;;;;10.10;7.05;;;;;;;;;;5051147;28;20238;-77
2022/10/12 11:30:24;;;;;;;37.78;12.88;;;;;;;;;;5051942;28;20209;-77
2022/10/12 11:32:55;;;;;;;11.60;6.50;;;;;;;;;;5051335;28;20649;-77
2022/10/12 11:35:26;;;;;;;12.63;7.03;;;;;;;;;;5051510;28;20233;-77
2022/10/12 11:37:56;;;;;;;9.65;6.40;;;;;;;;;;5050706;28;20245;-78
2022/10/12 11:40:24;;;;;;;9.20;6.55;;;;;;;;;;5051573;28;20198;-78
2022/10/12 11:42:52;;;;;;;10.80;8.18;;;;;;;;;;5050699;28;20614;-78
2022/10/12 11:45:22;;;;;;;12.90;6.90;;;;;;;;;;5051314;28;20205;-78
2022/10/12 11:47:52;;;;;;;11.15;8.00;;;;;;;;;;5050593;28;20244;-78
2022/10/12 11:50:25;;;;;;;10.00;7.20;;;;;;;;;;5051109;28;20200;-77
2022/10/12 11:52:54;;;;;;;8.98;6.90;;;;;;;;;;5044374;28;20233;-77
2022/10/12 11:55:45;;;;;;;9.10;7.38;;;;;;;;;;5051239;28;20570;-77
2022/10/12 11:58:14;;;;;;;9.35;6.93;;;;;;;;;;5050521;28;20237;-77
2022/10/12 12:00:49;;;;;;;10.15;6.95;;;;;;;;;;5051329;28;20212;-77
2022/10/12 12:03:18;;;;;;;9.63;7.10;;;;;;;;;;5051185;28;20240;-78
2022/10/12 12:05:47;;;;;;;10.73;7.50;;;;;;;;;;5051218;28;20202;-77
2022/10/12 12:08:21;;;;;;;9.98;6.65;;;;;;;;;;5050828;28;20287;-77
2022/10/12 12:10:53;;;;;;;10.00;7.57;;;;;;;;;;5051487;28;20278;-77
2022/10/12 12:13:22;;;;;;;11.63;7.60;;;;;;;;;;5050875;28;20238;-77
2022/10/12 12:16:07;;;;;;;13.07;7.70;;;;;;;;;;5050745;28;20256;-77
2022/10/12 12:18:57;;;;;;;7.80;6.28;;;;;;;;;;5050725;28;20235;-77
2022/10/12 12:21:25;;;;;;;8.80;6.28;;;;;;;;;;5050626;28;20213;-77
2022/10/12 12:23:54;;;;;;;12.15;7.15;;;;;;;;;;5050756;28;20597;-78
2022/10/12 12:26:22;;;;;;;9.85;6.55;;;;;;;;;;5050386;28;20251;-78
2022/10/12 12:28:50;;;;;;;13.35;8.18;;;;;;;;;;5050706;28;20257;-77
2022/10/12 12:31:25;;;;;;;10.02;6.95;;;;;;;;;;5051227;28;20293;-77
2022/10/12 12:34:04;;;;;;;9.68;7.22;;;;;;;;;;5059017;28;20243;-77
2022/10/12 12:36:33;;;;;;;11.35;6.70;;;;;;;;;;5070808;28;20603;-78
2022/10/12 12:39:01;;;;;;;11.20;6.93;;;;;;;;;;5068216;28;20716;-78
2022/10/12 12:41:29;;;;;;;12.65;7.03;;;;;;;;;;5050618;28;20240;-78
2022/10/12 12:43:57;;;;;;;9.27;6.93;;;;;;;;;;5050244;28;20229;-78
2022/10/12 12:46:25;;;;;;;12.15;7.63;;;;;;;;;;5051016;28;20222;-79
2022/10/12 12:48:58;;;;;;;11.27;6.60;;;;;;;;;;5050063;28;20295;-79
2022/10/12 12:51:27;;;;;;;9.38;6.90;;;;;;;;;;5051185;28;20206;-80
2022/10/12 12:53:58;;;;;;;10.93;7.63;;;;;;;;;;5050553;28;20234;-78
2022/10/12 12:56:30;;;;;;;10.95;6.97;;;;;;;;;;5049728;28;20230;-78
2022/10/12 12:59:07;;;;;;;15.27;7.43;;;;;;;;;;5052841;28;20233;-78
2022/10/12 13:01:44;;;;;;;10.07;7.15;;;;;;;;;;5054406;28;20202;-78
2022/10/12 13:04:17;;;;;;;13.07;7.55;;;;;;;;;;5054055;28;20234;-77
2022/10/12 13:07:11;;;;;;;10.48;6.70;;;;;;;;;;5054449;28;20279;-77
2022/10/12 13:09:45;;;;;;;12.68;7.22;;;;;;;;;;5053477;28;20689;-77
2022/10/12 13:12:20;;;;;;;7.78;6.97;;;;;;;;;;5054222;28;20187;-78
2022/10/12 13:14:56;;;;;;;10.48;6.68;;;;;;;;;;5054736;28;20237;-77
2022/10/12 13:17:31;;;;;;;10.55;7.10;;;;;;;;;;5053830;28;20736;-77
2022/10/12 13:20:00;;;;;;;13.50;6.72;;;;;;;;;;5054051;28;20202;-77
2022/10/12 13:22:28;;;;;;;13.73;6.40;;;;;;;;;;5053895;28;20245;-77
2022/10/12 13:24:59;;;;;;;8.70;6.43;;;;;;;;;;5054433;28;20210;-77
2022/10/12 13:27:31;;;;;;;9.32;6.78;;;;;;;;;;5054009;28;20234;-77
2022/10/12 13:30:00;;;;;;;9.27;5.85;;;;;;;;;;5051826;28;20202;-77
2022/10/12 13:32:32;;;;;;;10.98;6.22;;;;;;;;;;5054046;28;20900;-79
2022/10/12 13:35:03;;;;;;;10.32;6.28;;;;;;;;;;5054341;28;20222;-78
2022/10/12 13:37:31;;;;;;;8.77;5.97;;;;;;;;;;5053113;28;20244;-77
2022/10/12 13:40:00;;;;;;;8.45;6.20;;;;;;;;;;5054498;28;20669;-78
2022/10/12 13:42:28;;;;;;;8.63;6.00;;;;;;;;;;5053417;28;20233;-78
2022/10/12 13:44:55;;;;;;;8.77;5.75;;;;;;;;;;5053903;28;20202;-78
2022/10/12 13:47:23;;;;;;;7.90;6.78;;;;;;;;;;5052825;28;20225;-79
2022/10/12 13:49:51;;;;;;;11.60;5.90;;;;;;;;;;5037176;28;20672;-78
2022/10/12 13:52:22;;;;;;;7.63;6.30;;;;;;;;;;5033060;28;20215;-78
2022/10/12 13:54:50;;;;;;;8.15;6.28;;;;;;;;;;5040008;28;20206;-78
2022/10/12 13:57:21;;;;;;;7.45;4.97;;;;;;;;;;5051080;28;20230;-78
2022/10/12 13:59:51;;;;;;;11.35;5.47;;;;;;;;;;5034417;28;20568;-78
2022/10/12 14:02:19;;;;;;;7.85;5.10;;;;;;;;;;5039883;28;20795;-77
2022/10/12 14:04:46;;;;;;;6.72;4.97;;;;;;;;;;5053108;28;20224;-78
2022/10/12 14:07:20;;;;;;;9.38;5.32;;;;;;;;;;5047486;28;20241;-79
2022/10/12 14:09:49;;;;;;;8.15;5.43;;;;;;;;;;5056994;28;20237;-78
2022/10/12 14:12:17;;;;;;;6.03;4.32;;;;;;;;;;5061869;28;20266;-79
2022/10/12 14:14:46;;;;;;;6.35;4.78;;;;;;;;;;5067198;28;20205;-77
2022/10/12 14:17:15;;;;;;;6.93;4.63;;;;;;;;;;5053140;28;20249;-78
2022/10/12 14:19:44;;;;;;;6.30;4.70;;;;;;;;;;5052303;28;20559;-78
2022/10/12 14:22:13;;;;;;;7.65;4.78;;;;;;;;;;5052377;28;20643;-78
2022/10/12 14:24:40;;;;;;;6.00;4.78;;;;;;;;;;5053837;28;20198;-79
2022/10/12 14:27:08;;;;;;;5.30;4.72;;;;;;;;;;5053021;28;20233;-80
2022/10/12 14:29:37;;;;;;;5.82;5.22;;;;;;;;;;5053389;28;20225;-79
2022/10/12 14:32:07;;;;;;;7.93;4.63;;;;;;;;;;5051810;28;20202;-80
2022/10/12 14:34:35;;;;;;;8.23;4.38;;;;;;;;;;5048643;28;20575;-77
2022/10/12 14:37:03;;;;;;;7.55;5.10;;;;;;;;;;5052831;28;20226;-77
2022/10/12 14:39:30;;;;;;;6.78;4.88;;;;;;;;;;5052598;28;20232;-76
2022/10/12 14:42:01;;;;;;;6.43;4.68;;;;;;;;;;5052935;28;20557;-77
2022/10/12 14:44:28;;;;;;;7.68;5.35;;;;;;;;;;5052546;28;20230;-77
2022/10/12 14:46:56;;;;;;;9.05;5.72;;;;;;;;;;5052252;28;20232;-77
2022/10/12 14:49:26;;;;;;;7.43;5.90;;;;;;;;;;5051798;28;20233;-78